Time;durP1;ratioP1;P1;durP2;ratioP2;P2;SDS_P1;SDS_P2;PMS_P1;PMS_P2;Temp;Humidity;BMP_temperature;BMP_pressure;BME280_temperature;BME280_humidity;BME280_pressure;Samples;Min_cycle;Max_cycle;Signal;HPM_P1;HPM_P2
2022/11/18 00:00:41;;;;;;;4.97;3.50;;;;;;;-5.46;69.97;98770.22;4885971;29;20043;-68
2022/11/18 00:03:05;;;;;;;8.60;4.30;;;;;;;-5.43;69.94;98767.56;4918643;28;20532;-69
2022/11/18 00:05:30;;;;;;;6.70;4.53;;;;;;;-5.42;69.79;98764.09;4887944;28;20091;-67
2022/11/18 00:07:55;;;;;;;6.82;4.00;;;;;;;-5.37;69.77;98762.22;4918606;28;20043;-68
2022/11/18 00:10:20;;;;;;;7.40;4.10;;;;;;;-5.32;70.08;98763.84;4918761;28;20158;-66
2022/11/18 00:15:27;;;;;;;7.35;4.00;;;;;;;-5.30;69.73;98766.38;4912458;28;20055;-66
2022/11/18 00:17:52;;;;;;;10.13;4.93;;;;;;;-5.26;69.63;98771.50;4887703;29;20126;-62
2022/11/18 00:20:16;;;;;;;6.20;4.00;;;;;;;-5.27;70.06;98766.34;4900951;29;20486;-64
2022/11/18 00:22:41;;;;;;;6.80;3.78;;;;;;;-5.27;69.98;98756.78;4918885;28;20041;-69
2022/11/18 00:25:06;;;;;;;9.95;4.32;;;;;;;-5.34;69.68;98751.78;4902289;29;20051;-74
2022/11/18 00:27:31;;;;;;;9.25;4.72;;;;;;;-5.37;70.01;98751.84;4889554;28;20039;-62
2022/11/18 00:29:55;;;;;;;10.30;4.95;;;;;;;-5.41;69.58;98753.63;4918806;28;20813;-65
2022/11/18 00:32:20;;;;;;;8.70;4.50;;;;;;;-5.42;69.68;98759.75;4901517;29;20074;-72
2022/11/18 00:34:44;;;;;;;5.07;3.63;;;;;;;-5.44;69.78;98748.53;4885964;28;20170;-67
2022/11/18 00:37:09;;;;;;;6.82;3.72;;;;;;;-5.40;69.76;98751.91;4917924;28;20057;-63
2022/11/18 00:39:34;;;;;;;6.80;3.58;;;;;;;-5.42;69.91;98748.50;4917776;28;20054;-63
2022/11/18 00:44:41;;;;;;;6.22;4.40;;;;;;;-5.45;69.37;98744.22;4917961;28;20047;-63
2022/11/18 00:47:06;;;;;;;5.07;3.30;;;;;;;-5.45;69.37;98745.97;4917846;28;20035;-63
2022/11/18 00:49:30;;;;;;;6.55;3.97;;;;;;;-5.46;69.72;98741.66;4918203;28;20047;-63
2022/11/18 00:51:55;;;;;;;6.97;3.97;;;;;;;-5.40;69.33;98747.56;4917952;28;20051;-63
2022/11/18 00:54:20;;;;;;;6.57;4.45;;;;;;;-5.44;69.09;98740.75;4917714;28;20070;-64
2022/11/18 00:56:45;;;;;;;7.15;4.13;;;;;;;-5.50;69.00;98733.94;4900433;29;20051;-65
2022/11/18 00:59:09;;;;;;;8.80;4.60;;;;;;;-5.50;69.05;98736.53;4918017;28;20127;-64
2022/11/18 01:01:34;;;;;;;5.15;3.53;;;;;;;-5.51;69.20;98736.56;4886486;28;20070;-65
2022/11/18 01:03:59;;;;;;;9.35;3.83;;;;;;;-5.43;69.01;98731.22;4917656;28;20561;-63
2022/11/18 01:06:24;;;;;;;6.60;3.40;;;;;;;-5.41;69.02;98734.59;4900277;28;20051;-62
2022/11/18 01:08:48;;;;;;;8.45;4.88;;;;;;;-5.43;69.10;98733.81;4917499;28;20043;-62
2022/11/18 01:13:56;;;;;;;6.75;3.08;;;;;;;-5.48;68.85;98728.69;4905400;28;20446;-63
2022/11/18 01:16:23;;;;;;;11.48;4.20;;;;;;;-5.45;69.31;98718.25;4900098;29;20422;-63
2022/11/18 01:18:48;;;;;;;9.38;5.50;;;;;;;-5.48;69.07;98726.09;4917208;28;20043;-64
2022/11/18 01:21:13;;;;;;;7.72;4.15;;;;;;;-5.50;68.81;98726.13;4917290;28;20122;-65
2022/11/18 01:23:38;;;;;;;7.28;4.15;;;;;;;-5.52;68.93;98717.53;4917287;28;20127;-65
2022/11/18 01:26:05;;;;;;;8.07;4.28;;;;;;;-5.51;68.71;98719.22;4897166;29;20078;-64
2022/11/18 01:28:29;;;;;;;5.95;4.30;;;;;;;-5.49;69.01;98716.59;4886337;28;20532;-63
2022/11/18 01:31:03;;;;;;;6.78;4.38;;;;;;;-5.38;68.84;98717.22;4917347;28;20418;-66
2022/11/18 01:33:28;;;;;;;8.57;4.50;;;;;;;-5.41;68.48;98713.81;4917648;28;20069;-64
2022/11/18 01:35:52;;;;;;;9.40;4.85;;;;;;;-5.46;68.67;98719.13;4917644;28;20047;-63
2022/11/18 01:38:17;;;;;;;10.85;4.22;;;;;;;-5.49;68.73;98717.47;4919206;28;20039;-64
2022/11/18 01:40:41;;;;;;;8.60;4.65;;;;;;;-5.49;68.88;98717.47;4917865;28;20465;-64
2022/11/18 01:43:16;;;;;;;7.53;4.00;;;;;;;-5.42;69.54;98718.19;4889309;28;20099;-64
2022/11/18 01:45:42;;;;;;;;;;;;;;;-5.35;68.87;98724.09;4900795;29;20053;-63
2022/11/18 01:48:06;;;;;;;9.82;4.00;;;;;;;-5.41;68.17;98719.88;4917692;28;19982;-62
2022/11/18 01:50:34;;;;;;;8.15;4.38;;;;;;;-5.44;68.13;98714.78;4894595;29;20150;-63
2022/11/18 01:53:04;;;;;;;5.30;3.25;;;;;;;-5.41;68.54;98711.22;4911485;28;20117;-62
2022/11/18 01:55:34;;;;;;;8.30;4.05;;;;;;;-5.41;68.87;98711.22;4900986;29;20094;-62
2022/11/18 01:58:43;;;;;;;6.90;4.00;;;;;;;-5.35;69.20;98709.38;4898222;29;20040;-62
2022/11/18 02:01:07;;;;;;;6.25;3.92;;;;;;;-5.39;69.07;98715.50;4877689;29;20051;-63
2022/11/18 02:03:33;;;;;;;8.77;4.13;;;;;;;-5.38;68.51;98713.75;4879216;29;20040;-64
2022/11/18 02:06:00;;;;;;;4.30;2.25;;;;;;;-5.26;68.97;98709.16;4877165;29;20056;-63
2022/11/18 02:08:26;;;;;;;8.70;4.25;;;;;;;-5.38;68.56;98709.44;4867964;29;20101;-63
2022/11/18 02:10:50;;;;;;;6.65;3.88;;;;;;;-5.41;69.08;98713.81;4864054;29;20124;-64
2022/11/18 02:13:16;;;;;;;7.50;3.90;;;;;;;-5.41;68.71;98703.44;4869382;29;20063;-63
2022/11/18 02:15:52;;;;;;;10.68;4.20;;;;;;;-5.41;68.77;98699.09;4881275;29;20475;-65
2022/11/18 02:18:16;;;;;;;6.85;4.07;;;;;;;-5.46;68.49;98702.69;4880500;29;20499;-67
2022/11/18 02:20:45;;;;;;;6.93;4.20;;;;;;;-5.46;69.17;98706.16;4862647;29;20066;-62
2022/11/18 02:23:32;;;;;;;5.57;3.85;;;;;;;-5.42;68.84;98701.75;4881105;29;20541;-64
2022/11/18 02:26:27;;;;;;;7.72;4.05;;;;;;;-5.44;68.57;98695.75;4877645;29;20464;-63
2022/11/18 02:29:16;;;;;;;;;;;;;;;-5.33;69.00;98698.94;4867221;29;20506;-63
2022/11/18 02:31:51;;;;;;;9.68;4.43;;;;;;;-5.43;68.75;98693.13;4887504;28;20304;-64
2022/11/18 02:34:27;;;;;;;8.13;3.88;;;;;;;-5.43;68.33;98689.66;4905952;29;20070;-64
2022/11/18 02:36:58;;;;;;;5.22;3.17;;;;;;;-5.43;69.11;98698.31;4912347;28;20159;-67
2022/11/18 02:39:42;;;;;;;6.80;3.60;;;;;;;-5.40;68.62;98690.41;4889106;29;20043;-67
2022/11/18 02:42:11;;;;;;;8.63;4.35;;;;;;;-5.45;68.53;98691.44;4916517;29;20065;-68
2022/11/18 02:44:42;;;;;;;5.93;3.42;;;;;;;-5.45;68.89;98687.09;4903295;29;20078;-67
2022/11/18 02:47:10;;;;;;;4.68;3.20;;;;;;;-5.44;69.06;98682.75;4909988;29;20130;-66
2022/11/18 02:49:40;;;;;;;6.07;3.40;;;;;;;-5.41;68.99;98691.31;4908265;29;20043;-67
2022/11/18 02:52:08;;;;;;;6.85;3.83;;;;;;;-5.39;69.20;98681.75;4906773;29;20051;-67
2022/11/18 02:54:35;;;;;;;4.95;3.47;;;;;;;-5.35;68.97;98691.19;4912975;29;20046;-67
2022/11/18 02:57:01;;;;;;;8.82;4.38;;;;;;;-5.33;68.82;98683.38;4907901;29;20043;-67
2022/11/18 02:59:27;;;;;;;5.43;3.55;;;;;;;-5.37;69.04;98679.13;4909150;29;20130;-68
2022/11/18 03:01:52;;;;;;;11.15;4.70;;;;;;;-5.38;68.80;98688.66;4896395;29;20067;-67
2022/11/18 03:04:17;;;;;;;7.93;4.68;;;;;;;-5.38;68.95;98682.59;4912443;29;20042;-65
2022/11/18 03:06:49;;;;;;;8.07;4.28;;;;;;;-5.35;69.37;98685.13;4917637;29;20126;-66
2022/11/18 03:09:24;;;;;;;7.28;4.25;;;;;;;-5.33;69.13;98680.75;4922918;28;20514;-67
2022/11/18 03:12:00;;;;;;;6.35;3.67;;;;;;;-5.33;69.22;98676.44;4906716;29;20138;-67
2022/11/18 03:14:34;;;;;;;9.25;5.30;;;;;;;-5.32;69.13;98677.28;4923253;28;20055;-67
2022/11/18 03:17:02;;;;;;;6.97;4.07;;;;;;;-5.36;68.56;98673.03;4923668;28;20074;-67
2022/11/18 03:19:42;;;;;;;6.03;3.72;;;;;;;-5.34;68.81;98674.72;4923360;28;20043;-71
2022/11/18 03:22:26;;;;;;;10.57;4.72;;;;;;;-5.33;68.96;98671.22;4924457;28;20524;-69
2022/11/18 03:25:13;;;;;;;;;;;;;;;-5.24;69.13;98675.34;4906218;28;20128;-69
2022/11/18 03:27:52;;;;;;;6.20;3.40;;;;;;;-5.28;68.78;98671.97;4907570;29;19982;-68
2022/11/18 03:30:21;;;;;;;8.48;4.18;;;;;;;-5.33;69.04;98670.38;4908768;29;20039;-66
2022/11/18 03:32:51;;;;;;;6.20;3.47;;;;;;;-5.31;69.15;98679.84;4906693;29;20082;-69
2022/11/18 03:35:38;;;;;;;5.10;3.10;;;;;;;-5.25;68.92;98665.84;4878949;29;20050;-68
2022/11/18 03:38:12;;;;;;;8.55;4.53;;;;;;;-5.28;68.99;98660.72;4891341;28;20040;-68
2022/11/18 03:40:40;;;;;;;7.18;4.55;;;;;;;-5.28;68.71;98661.56;4922323;28;20046;-69
2022/11/18 03:43:12;;;;;;;4.82;3.67;;;;;;;-5.29;68.74;98672.00;4922410;28;20055;-71
2022/11/18 03:45:44;;;;;;;6.25;3.75;;;;;;;-5.30;68.55;98665.94;4919648;29;20070;-70
2022/11/18 03:48:18;;;;;;;7.78;4.93;;;;;;;-5.26;69.06;98662.38;4887400;28;20146;-68
2022/11/18 03:50:58;;;;;;;7.20;3.77;;;;;;;-5.26;68.41;98666.72;4903874;29;20050;-69
2022/11/18 03:53:26;;;;;;;7.03;4.28;;;;;;;-5.28;69.30;98669.38;4902375;29;20126;-71
2022/11/18 03:55:57;;;;;;;7.30;4.85;;;;;;;-5.28;69.02;98658.13;4922610;28;20098;-70
2022/11/18 03:58:41;;;;;;;4.32;3.22;;;;;;;-5.23;69.11;98661.47;4919810;28;20090;-69
2022/11/18 04:01:24;;;;;;;7.77;3.57;;;;;;;-5.23;69.16;98661.47;4905000;28;20865;-69
2022/11/18 04:03:48;;;;;;;5.68;3.63;;;;;;;-5.25;69.15;98658.06;4922037;28;20078;-66
2022/11/18 04:07:04;;;;;;;6.30;4.57;;;;;;;-5.19;68.61;98647.53;4902010;29;20078;-65
2022/11/18 04:09:36;;;;;;;6.55;3.78;;;;;;;-5.23;68.91;98654.53;4836903;29;20052;-65
2022/11/18 04:12:09;;;;;;;8.95;4.30;;;;;;;-5.23;68.90;98657.13;4847183;29;20040;-66
2022/11/18 04:14:39;;;;;;;10.73;5.25;;;;;;;-5.23;68.66;98658.88;4863487;29;20041;-65
2022/11/18 04:17:11;;;;;;;8.80;4.28;;;;;;;-5.23;68.89;98651.06;4830899;29;20060;-66
2022/11/18 04:19:36;;;;;;;9.75;4.18;;;;;;;-5.24;68.60;98663.22;4842742;29;20098;-68
2022/11/18 04:22:00;;;;;;;6.85;3.85;;;;;;;-5.25;69.25;98660.66;4827939;29;20056;-67
2022/11/18 04:24:25;;;;;;;6.85;4.05;;;;;;;-5.22;68.98;98652.78;4829618;29;20040;-66
2022/11/18 04:26:50;;;;;;;7.72;4.20;;;;;;;-5.23;68.51;98651.06;4830157;29;20057;-66
2022/11/18 04:29:14;;;;;;;6.25;4.15;;;;;;;-5.21;68.83;98657.09;4845091;29;20499;-66
2022/11/18 04:31:39;;;;;;;7.47;4.40;;;;;;;-5.19;68.60;98657.91;4843553;29;20082;-68
2022/11/18 04:34:03;;;;;;;6.32;4.03;;;;;;;-5.22;68.23;98643.25;4828906;29;20049;-67
2022/11/18 04:36:28;;;;;;;7.95;4.68;;;;;;;-5.18;68.75;98646.59;4841524;29;20610;-66
2022/11/18 04:38:53;;;;;;;8.27;4.07;;;;;;;-5.16;68.78;98648.28;4843975;29;20057;-66
2022/11/18 04:41:18;;;;;;;8.98;4.72;;;;;;;-5.17;68.76;98650.91;4843436;29;20056;-66
2022/11/18 04:43:42;;;;;;;7.38;4.20;;;;;;;-5.20;68.86;98644.06;4843897;29;20036;-67
2022/11/18 04:46:07;;;;;;;5.97;3.88;;;;;;;-5.18;68.83;98654.41;4866640;29;20110;-66
2022/11/18 04:48:32;;;;;;;7.60;4.10;;;;;;;-5.16;68.92;98652.63;4899671;29;20557;-66
2022/11/18 04:50:57;;;;;;;7.82;4.07;;;;;;;-5.20;68.67;98645.81;4877319;29;20077;-66
2022/11/18 04:53:21;;;;;;;9.40;4.55;;;;;;;-5.18;68.74;98649.22;4896845;29;20058;-67
2022/11/18 04:55:46;;;;;;;5.22;3.63;;;;;;;-5.20;68.10;98656.22;4878947;29;20051;-68
2022/11/18 04:58:10;;;;;;;6.10;3.55;;;;;;;-5.21;68.15;98651.91;4895541;29;20090;-68
2022/11/18 05:00:35;;;;;;;6.22;4.10;;;;;;;-5.24;68.35;98644.16;4866444;29;20431;-66
2022/11/18 05:02:59;;;;;;;9.50;4.28;;;;;;;-5.27;68.21;98659.81;4892974;29;20130;-67
2022/11/18 05:05:24;;;;;;;9.65;4.35;;;;;;;-5.23;68.55;98649.34;4901227;29;20047;-68
2022/11/18 05:07:49;;;;;;;6.95;4.10;;;;;;;-5.17;68.22;98646.56;4869240;29;20086;-67
2022/11/18 05:10:14;;;;;;;6.00;3.65;;;;;;;-5.16;68.74;98647.44;4902249;29;20423;-67
2022/11/18 05:12:48;;;;;;;7.40;3.85;;;;;;;-5.21;68.72;98673.53;4900373;29;20498;-67
2022/11/18 05:15:13;;;;;;;4.95;3.25;;;;;;;-5.21;68.39;98664.88;4883832;29;20059;-67
2022/11/18 05:17:37;;;;;;;6.45;3.85;;;;;;;-5.20;68.31;98662.25;4882710;29;20158;-66
2022/11/18 05:20:03;;;;;;;7.93;3.72;;;;;;;-5.21;68.44;98657.09;4871236;29;20392;-66
2022/11/18 05:22:27;;;;;;;4.60;3.00;;;;;;;-5.18;68.80;98652.66;4896069;29;20410;-68
2022/11/18 05:24:52;;;;;;;7.15;3.67;;;;;;;-5.16;68.43;98665.63;4900329;29;20419;-67
2022/11/18 05:27:16;;;;;;;5.63;3.72;;;;;;;-5.14;68.39;98654.31;4900841;29;20047;-66
2022/11/18 05:29:41;;;;;;;6.07;4.55;;;;;;;-5.04;68.53;98661.88;4882135;29;20462;-67
2022/11/18 05:32:06;;;;;;;5.70;3.38;;;;;;;-5.08;68.22;98660.25;4869705;29;20522;-66
2022/11/18 05:34:31;;;;;;;6.85;3.80;;;;;;;-5.09;67.76;98667.19;4900055;29;20047;-67
2022/11/18 05:36:55;;;;;;;6.70;4.30;;;;;;;-4.98;68.01;98656.53;4899077;29;20051;-66
2022/11/18 05:39:20;;;;;;;8.02;4.15;;;;;;;-5.05;67.77;98655.81;4866917;29;20047;-67
2022/11/18 05:44:28;;;;;;;9.65;3.80;;;;;;;-5.08;68.34;98660.25;4879050;29;20054;-66
2022/11/18 05:46:53;;;;;;;5.60;4.28;;;;;;;-5.08;67.82;98661.09;4887100;29;20040;-68
2022/11/18 05:49:18;;;;;;;6.97;3.83;;;;;;;-5.09;67.97;98656.81;4906569;29;20043;-66
2022/11/18 05:51:43;;;;;;;8.27;4.00;;;;;;;-5.07;67.87;98662.78;4873483;29;20511;-66
2022/11/18 05:54:09;;;;;;;7.60;3.50;;;;;;;-5.08;68.13;98666.31;4907674;29;20048;-65
2022/11/18 05:56:45;;;;;;;8.05;4.30;;;;;;;-5.05;68.18;98660.16;4893139;29;20054;-66
2022/11/18 05:59:10;;;;;;;11.90;4.55;;;;;;;-5.06;67.69;98669.69;4909841;29;20127;-65
2022/11/18 06:01:48;;;;;;;10.25;4.03;;;;;;;-5.04;67.23;98665.31;4907782;29;20052;-65
2022/11/18 06:04:19;;;;;;;8.30;3.95;;;;;;;-4.98;67.95;98666.94;4895344;29;20064;-67
2022/11/18 06:06:47;;;;;;;12.45;4.28;;;;;;;-4.95;67.64;98670.28;4876254;29;20051;-67
2022/11/18 06:09:15;;;;;;;5.95;3.92;;;;;;;-4.97;67.79;98666.91;4906474;29;20050;-66
2022/11/18 06:11:46;;;;;;;7.93;4.38;;;;;;;-4.95;67.93;98665.09;4874176;29;20499;-65
2022/11/18 06:14:18;;;;;;;9.30;3.90;;;;;;;-4.93;67.43;98654.66;4901620;29;20050;-68
2022/11/18 06:16:48;;;;;;;5.05;3.53;;;;;;;-4.96;67.86;98659.91;4874395;29;20227;-67
2022/11/18 06:19:14;;;;;;;5.68;3.50;;;;;;;-4.94;67.32;98663.34;4900893;29;20919;-67
2022/11/18 06:21:39;;;;;;;7.07;4.60;;;;;;;-4.94;67.81;98661.59;4902328;29;20047;-68
2022/11/18 06:24:04;;;;;;;7.53;4.13;;;;;;;-4.94;67.87;98666.78;4884982;29;20044;-68
2022/11/18 06:26:29;;;;;;;5.03;3.65;;;;;;;-4.95;67.87;98662.50;4902362;29;20494;-66
2022/11/18 06:28:54;;;;;;;11.18;4.32;;;;;;;-4.98;67.74;98661.72;4869101;29;20517;-67
2022/11/18 06:31:19;;;;;;;8.48;4.78;;;;;;;-4.95;67.84;98667.69;4902097;29;20074;-67
2022/11/18 06:33:43;;;;;;;7.35;4.00;;;;;;;-4.92;67.78;98662.41;4884990;29;20083;-68
2022/11/18 06:36:08;;;;;;;6.30;3.70;;;;;;;-4.96;67.92;98663.38;4869112;29;20051;-67
2022/11/18 06:38:33;;;;;;;5.80;3.78;;;;;;;-4.97;67.70;98672.09;4884478;29;20449;-69
2022/11/18 06:40:59;;;;;;;7.45;4.35;;;;;;;-4.94;67.91;98674.59;4901923;29;20050;-66
2022/11/18 06:43:42;;;;;;;9.40;4.57;;;;;;;-4.96;68.02;98660.78;4874874;29;20047;-67
2022/11/18 06:48:57;;;;;;;8.30;4.90;;;;;;;-4.91;67.68;98661.53;4902229;29;20051;-67
2022/11/18 06:51:22;;;;;;;6.75;3.95;;;;;;;-4.89;67.69;98661.50;4914602;29;20048;-66
2022/11/18 06:53:47;;;;;;;6.53;4.15;;;;;;;-4.85;67.68;98661.34;4884237;29;20047;-65
2022/11/18 06:56:13;;;;;;;9.05;4.25;;;;;;;-4.80;66.97;98671.66;4884863;29;20047;-66
2022/11/18 06:58:38;;;;;;;6.78;4.22;;;;;;;-4.83;67.49;98679.53;4900391;29;20047;-65
2022/11/18 07:01:13;;;;;;;7.07;4.78;;;;;;;-4.81;67.13;98660.41;4902197;29;20146;-65
2022/11/18 07:03:39;;;;;;;8.88;4.65;;;;;;;-4.82;67.73;98671.69;4885104;29;20055;-65
2022/11/18 07:06:04;;;;;;;7.43;4.15;;;;;;;-4.83;67.82;98656.97;4901441;29;20079;-66
2022/11/18 07:08:29;;;;;;;10.50;4.13;;;;;;;-4.81;67.91;98656.94;4901401;29;20059;-67
2022/11/18 07:10:54;;;;;;;7.65;4.10;;;;;;;-4.79;67.42;98668.16;4884045;29;20051;-67
2022/11/18 07:13:18;;;;;;;6.28;4.18;;;;;;;-4.72;67.12;98666.25;4901214;29;20047;-67
2022/11/18 07:15:43;;;;;;;5.60;3.65;;;;;;;-4.76;67.71;98658.56;4884345;29;20048;-67
2022/11/18 07:18:07;;;;;;;12.05;4.35;;;;;;;-4.72;67.44;98658.44;4875252;29;20822;-66
2022/11/18 07:20:33;;;;;;;8.80;4.43;;;;;;;-4.69;67.68;98659.22;4883763;29;20047;-67
2022/11/18 07:22:58;;;;;;;7.80;4.05;;;;;;;-4.67;66.75;98669.59;4900601;29;20055;-66
2022/11/18 07:25:22;;;;;;;7.28;4.45;;;;;;;-4.69;67.44;98668.78;4867815;29;20162;-66
2022/11/18 07:27:47;;;;;;;10.80;4.28;;;;;;;-4.69;67.48;98669.63;4833981;29;20036;-66
2022/11/18 07:30:12;;;;;;;7.45;4.82;;;;;;;-4.66;67.29;98664.34;4891110;29;20130;-67
2022/11/18 07:32:37;;;;;;;8.35;4.10;;;;;;;-4.62;67.67;98673.75;4883223;29;20406;-67
2022/11/18 07:35:01;;;;;;;6.25;3.65;;;;;;;-4.57;67.39;98669.31;4900451;29;20411;-66
2022/11/18 07:37:28;;;;;;;6.63;4.25;;;;;;;-4.57;66.55;98663.25;4899203;29;20518;-67
2022/11/18 07:39:52;;;;;;;8.70;4.45;;;;;;;-4.55;67.30;98667.53;4900297;29;20494;-67
2022/11/18 07:42:17;;;;;;;5.13;3.90;;;;;;;-4.49;67.16;98672.56;4900414;29;20055;-67
2022/11/18 07:44:42;;;;;;;6.85;5.03;;;;;;;-4.51;67.13;98666.53;4883169;29;20043;-66
2022/11/18 07:47:06;;;;;;;6.65;4.75;;;;;;;-4.52;66.76;98672.66;4900785;29;20126;-66
2022/11/18 07:49:31;;;;;;;9.27;4.45;;;;;;;-4.48;66.87;98681.22;4867570;29;20088;-66
2022/11/18 07:51:55;;;;;;;9.77;5.15;;;;;;;-4.45;66.91;98673.34;4900067;29;20414;-67
2022/11/18 07:54:20;;;;;;;5.50;3.90;;;;;;;-4.41;67.30;98680.19;4900141;29;20053;-66
2022/11/18 07:56:44;;;;;;;7.85;4.35;;;;;;;-4.36;67.09;98678.28;4903203;29;20074;-67
2022/11/18 07:59:09;;;;;;;8.90;4.65;;;;;;;-4.34;66.87;98673.91;4908591;29;20047;-67
2022/11/18 08:01:34;;;;;;;7.38;4.55;;;;;;;-4.32;67.10;98685.13;4906324;29;20227;-66
2022/11/18 08:04:10;;;;;;;6.63;4.28;;;;;;;-4.26;66.57;98679.72;4900840;29;20122;-66
2022/11/18 08:06:36;;;;;;;8.32;4.65;;;;;;;-4.30;66.55;98683.34;4884088;29;20051;-66
2022/11/18 08:09:01;;;;;;;6.70;4.13;;;;;;;-4.26;67.01;98679.72;4882806;29;20047;-68
2022/11/18 08:11:26;;;;;;;6.68;4.10;;;;;;;-4.32;66.81;98685.13;4899777;29;20418;-66
2022/11/18 08:13:51;;;;;;;10.30;4.30;;;;;;;-4.30;66.86;98688.53;4882334;29;20418;-67
2022/11/18 08:16:18;;;;;;;13.23;4.90;;;;;;;-4.30;66.62;98685.94;4875055;29;20110;-67
2022/11/18 08:18:43;;;;;;;8.52;5.40;;;;;;;-4.32;66.50;98684.25;4893959;29;20058;-67
2022/11/18 08:21:09;;;;;;;6.72;4.03;;;;;;;-4.29;66.97;98682.44;4876676;29;20415;-66
2022/11/18 08:23:34;;;;;;;7.45;4.03;;;;;;;-4.26;66.69;98682.34;4892700;29;20048;-66
2022/11/18 08:26:06;;;;;;;8.35;4.75;;;;;;;-4.23;66.41;98687.47;4899435;29;20095;-67
2022/11/18 08:28:31;;;;;;;9.02;5.05;;;;;;;-4.25;66.82;98691.84;4899557;29;20410;-66
2022/11/18 08:30:56;;;;;;;9.10;4.40;;;;;;;-4.26;66.91;98689.28;4866136;29;20102;-66
2022/11/18 08:33:20;;;;;;;7.10;4.55;;;;;;;-4.25;67.02;98683.19;4889202;29;20047;-66
2022/11/18 08:35:45;;;;;;;9.75;4.90;;;;;;;-4.24;66.93;98692.72;4880005;29;20109;-68
2022/11/18 08:38:09;;;;;;;6.60;4.78;;;;;;;-4.25;66.62;98702.25;4896565;29;20042;-68
2022/11/18 08:40:34;;;;;;;12.38;5.10;;;;;;;-4.25;66.58;98688.41;4882267;29;20060;-67
2022/11/18 08:42:59;;;;;;;8.10;4.53;;;;;;;-4.24;66.22;98698.78;4899258;29;20054;-67
2022/11/18 08:45:23;;;;;;;10.13;5.68;;;;;;;-4.23;66.25;98690.06;4876395;29;20051;-66
2022/11/18 08:47:48;;;;;;;7.43;4.60;;;;;;;-4.24;66.79;98692.72;4891983;29;20079;-66
2022/11/18 08:50:13;;;;;;;10.55;4.40;;;;;;;-4.21;66.10;98690.88;4899148;29;20047;-67
2022/11/18 08:52:37;;;;;;;8.05;4.88;;;;;;;-4.18;66.37;98687.34;4899287;29;20044;-66
2022/11/18 08:55:03;;;;;;;6.82;4.43;;;;;;;-4.15;66.11;98682.91;4868694;29;20451;-67
2022/11/18 08:57:28;;;;;;;11.30;4.75;;;;;;;-4.18;66.69;98688.22;4882296;29;20454;-67
2022/11/18 08:59:52;;;;;;;7.47;4.50;;;;;;;-4.18;66.49;98693.41;4899494;29;20779;-67
2022/11/18 09:02:20;;;;;;;5.43;4.40;;;;;;;-4.13;66.60;98694.13;4881995;29;20046;-67
2022/11/18 09:04:49;;;;;;;7.57;4.47;;;;;;;-4.08;66.35;98699.22;4899216;29;20404;-67
2022/11/18 09:07:15;;;;;;;11.07;4.85;;;;;;;-4.07;66.49;98690.50;4901414;29;20130;-67
2022/11/18 09:09:40;;;;;;;7.32;4.70;;;;;;;-4.06;66.06;98703.44;4899371;29;20043;-67
2022/11/18 09:12:04;;;;;;;9.20;4.55;;;;;;;-4.05;66.08;98714.72;4899122;29;20191;-68
2022/11/18 09:14:29;;;;;;;6.15;4.28;;;;;;;-4.06;65.95;98703.44;4899425;29;20114;-68
2022/11/18 09:16:54;;;;;;;6.00;4.68;;;;;;;-4.05;65.98;98718.19;4869078;29;20060;-68
2022/11/18 09:19:19;;;;;;;13.23;5.63;;;;;;;-4.02;66.41;98709.44;4881753;29;20039;-68
2022/11/18 09:21:43;;;;;;;8.40;4.25;;;;;;;-3.98;66.35;98710.22;4898389;29;20056;-67
2022/11/18 09:24:09;;;;;;;8.50;4.97;;;;;;;-3.98;65.73;98703.25;4898768;29;20518;-68
2022/11/18 09:26:34;;;;;;;9.15;4.90;;;;;;;-3.98;66.11;98705.88;4898850;29;20099;-68
2022/11/18 09:28:59;;;;;;;10.00;5.10;;;;;;;-3.99;65.45;98708.50;4881855;29;20134;-68
2022/11/18 09:31:23;;;;;;;9.05;4.90;;;;;;;-4.00;65.84;98705.03;4875466;29;20067;-68
2022/11/18 09:33:48;;;;;;;11.38;5.35;;;;;;;-4.04;65.71;98709.47;4891354;29;20134;-68
2022/11/18 09:36:22;;;;;;;6.95;4.75;;;;;;;-4.02;66.30;98705.09;4899313;29;20054;-68
2022/11/18 09:38:47;;;;;;;10.20;5.45;;;;;;;-4.04;66.35;98704.28;4878834;29;20044;-67
2022/11/18 09:41:23;;;;;;;8.68;4.32;;;;;;;-3.97;66.22;98699.75;4899840;29;20636;-67
2022/11/18 09:44:15;;;;;;;5.57;4.45;;;;;;;-3.93;65.92;98705.72;4888427;29;20134;-67
2022/11/18 09:46:52;;;;;;;6.53;4.68;;;;;;;-3.87;66.18;98705.56;4904642;29;20047;-66
2022/11/18 09:49:39;;;;;;;8.55;4.93;;;;;;;-3.81;65.91;98711.44;4900145;29;20134;-66
2022/11/18 09:52:12;;;;;;;8.07;4.75;;;;;;;-3.81;65.81;98706.22;4883405;29;20044;-68
2022/11/18 09:54:37;;;;;;;7.88;4.88;;;;;;;-3.81;65.79;98711.44;4882401;29;20048;-66
2022/11/18 09:57:12;;;;;;;7.25;4.53;;;;;;;-3.78;65.93;98710.50;4898268;29;20091;-66
2022/11/18 09:59:37;;;;;;;6.13;3.92;;;;;;;-3.76;65.59;98704.34;4898592;29;20039;-66
2022/11/18 10:02:26;;;;;;;11.35;4.80;;;;;;;-3.72;65.44;98710.31;4881624;29;20050;-66
2022/11/18 10:04:51;;;;;;;6.82;4.40;;;;;;;-3.78;65.31;98711.34;4900087;29;20048;-66
2022/11/18 10:07:20;;;;;;;8.57;5.13;;;;;;;-3.77;65.51;98720.88;4900593;29;20050;-66
2022/11/18 10:09:50;;;;;;;6.05;4.22;;;;;;;-3.79;65.55;98714.84;4873393;29;20048;-66
2022/11/18 10:12:33;;;;;;;8.10;4.55;;;;;;;-3.82;66.17;98714.94;4902313;29;20537;-66
2022/11/18 10:15:22;;;;;;;6.18;4.15;;;;;;;-3.77;66.04;98727.81;4871592;29;20150;-65
2022/11/18 10:17:57;;;;;;;6.72;4.28;;;;;;;-3.82;65.53;98720.13;4887578;29;20051;-66
2022/11/18 10:20:27;;;;;;;7.78;5.03;;;;;;;-3.81;65.98;98721.00;4871076;29;20081;-65
2022/11/18 10:23:02;;;;;;;8.27;4.68;;;;;;;-3.78;65.89;98719.16;4879343;29;20055;-67
2022/11/18 10:25:26;;;;;;;7.95;4.45;;;;;;;-3.74;66.24;98717.34;4893612;29;20398;-66
2022/11/18 10:27:51;;;;;;;9.32;5.10;;;;;;;-3.75;65.84;98720.84;4876302;29;20451;-68
2022/11/18 10:30:21;;;;;;;7.15;4.35;;;;;;;-3.74;65.83;98720.78;4891550;29;20506;-67
2022/11/18 10:32:58;;;;;;;7.63;4.95;;;;;;;-3.70;66.18;98726.75;4900306;29;20051;-66
2022/11/18 10:35:28;;;;;;;8.65;5.13;;;;;;;-3.70;65.90;98732.81;4886860;29;20044;-66
2022/11/18 10:38:19;;;;;;;9.13;4.97;;;;;;;-3.70;66.14;98738.00;4889875;29;20051;-67
2022/11/18 10:40:49;;;;;;;6.95;4.60;;;;;;;-3.72;65.55;98733.75;4880311;29;20048;-67
2022/11/18 10:43:43;;;;;;;10.68;5.43;;;;;;;-3.73;66.03;98737.28;4904123;29;20047;-67
2022/11/18 10:46:28;;;;;;;4.75;3.92;;;;;;;-3.74;66.39;98735.56;4877492;29;20096;-66
2022/11/18 10:49:08;;;;;;;12.43;6.13;;;;;;;-3.77;65.62;98735.63;4891307;29;20055;-66
2022/11/18 10:51:33;;;;;;;11.02;5.43;;;;;;;-3.80;66.21;98743.53;4902384;29;20047;-66
2022/11/18 10:54:16;;;;;;;7.88;5.28;;;;;;;-3.77;65.86;98738.25;4878591;29;20794;-67
2022/11/18 10:56:46;;;;;;;8.45;5.22;;;;;;;-3.78;66.19;98744.34;4883091;29;20040;-68
2022/11/18 10:59:33;;;;;;;7.50;4.90;;;;;;;-3.78;65.61;98745.19;4884528;29;20047;-68
2022/11/18 11:02:19;;;;;;;5.47;3.88;;;;;;;-3.86;65.62;98741.97;4865806;29;20091;-68
2022/11/18 11:04:46;;;;;;;11.38;4.30;;;;;;;-3.80;66.15;98746.13;4901467;29;20142;-67
2022/11/18 11:07:14;;;;;;;9.60;5.03;;;;;;;-3.80;65.91;98751.34;4901280;29;20481;-68
2022/11/18 11:09:39;;;;;;;7.75;5.10;;;;;;;-3.81;65.78;98745.28;4874405;29;20063;-68
2022/11/18 11:12:14;;;;;;;10.02;5.40;;;;;;;-3.75;66.26;98746.88;4897393;29;20040;-68
2022/11/18 11:14:52;;;;;;;9.30;4.88;;;;;;;-3.73;66.27;98751.16;4901647;29;20094;-67
2022/11/18 11:17:30;;;;;;;8.68;5.20;;;;;;;-3.71;65.96;98754.53;4870831;29;20106;-68
2022/11/18 11:20:18;;;;;;;12.57;5.03;;;;;;;-3.64;66.13;98760.44;4901748;29;20668;-68
2022/11/18 11:22:43;;;;;;;10.15;4.80;;;;;;;-3.64;66.32;98765.66;4884019;29;20071;-67
2022/11/18 11:25:16;;;;;;;7.38;4.32;;;;;;;-3.61;66.12;98765.53;4901281;29;20813;-66
2022/11/18 11:27:56;;;;;;;7.35;5.00;;;;;;;-3.63;66.38;98763.91;4901173;29;20046;-68
2022/11/18 11:30:22;;;;;;;7.47;4.32;;;;;;;-3.63;66.33;98769.13;4868329;29;20067;-67
2022/11/18 11:33:12;;;;;;;7.63;4.47;;;;;;;-3.57;66.38;98777.59;4900470;29;20130;-67
2022/11/18 11:35:57;;;;;;;6.90;4.07;;;;;;;-3.56;66.42;98778.44;4879856;29;20050;-68
2022/11/18 11:38:34;;;;;;;8.30;4.30;;;;;;;-3.61;66.00;98775.97;4900107;29;20079;-69
2022/11/18 11:41:22;;;;;;;10.65;4.97;;;;;;;-3.60;66.08;98785.47;4900424;29;20075;-69
2022/11/18 11:43:47;;;;;;;10.35;4.75;;;;;;;-3.62;66.44;98776.03;4900097;29;20090;-70
2022/11/18 11:49:52;;;;;;;7.97;5.22;;;;;;;-3.55;65.78;98783.63;4877071;29;20052;-70
2022/11/18 11:52:42;;;;;;;7.07;4.18;;;;;;;-3.54;66.32;98779.25;4900227;29;20051;-69
2022/11/18 11:55:17;;;;;;;10.65;5.90;;;;;;;-3.55;66.07;98787.97;4899867;29;20130;-70
2022/11/18 11:58:16;;;;;;;7.28;5.07;;;;;;;-3.51;66.11;98790.47;4900382;29;20043;-70
2022/11/18 12:00:53;;;;;;;12.18;5.07;;;;;;;-3.52;66.32;98788.75;4881275;29;20136;-69